createdAt,value
2017-10-31T00:00:55.608Z,7.37
2017-10-31T00:03:23.872Z,13.27
2017-10-31T00:05:51.373Z,4.73
2017-10-31T00:08:18.906Z,8.23
2017-10-31T00:10:46.561Z,11.20
2017-10-31T00:13:14.294Z,11.43
2017-10-31T00:15:42.032Z,13.77
2017-10-31T00:18:09.807Z,10.03
2017-10-31T00:20:37.319Z,17.40
2017-10-31T00:23:04.824Z,5.60
2017-10-31T00:25:32.320Z,7.50
2017-10-31T00:28:00.656Z,11.07
2017-10-31T00:30:28.272Z,10.00
2017-10-31T00:32:55.784Z,11.27
2017-10-31T00:35:23.299Z,20.60
2017-10-31T00:37:50.892Z,20.30
2017-10-31T00:40:18.477Z,11.23
2017-10-31T00:42:45.971Z,8.13
2017-10-31T00:45:13.648Z,13.00
2017-10-31T00:47:41.452Z,8.63
2017-10-31T00:50:09.253Z,6.90
2017-10-31T00:52:36.954Z,21.20
2017-10-31T00:55:04.721Z,10.13
2017-10-31T00:57:32.238Z,6.83
2017-10-31T00:59:59.828Z,14.07
2017-10-31T01:02:27.336Z,6.37
2017-10-31T01:04:54.847Z,4.37
2017-10-31T01:07:22.361Z,25.70
2017-10-31T01:09:50.090Z,16.33
2017-10-31T01:12:17.588Z,10.90
2017-10-31T01:14:45.096Z,20.07
2017-10-31T01:17:12.621Z,11.87
2017-10-31T01:19:40.224Z,13.80
2017-10-31T01:22:07.750Z,9.20
2017-10-31T01:24:35.427Z,8.00
2017-10-31T01:27:02.933Z,7.53
2017-10-31T01:29:30.680Z,9.03
2017-10-31T01:31:58.189Z,10.87
2017-10-31T01:34:25.836Z,5.80
2017-10-31T01:36:53.370Z,8.13
2017-10-31T01:39:21.145Z,11.10
2017-10-31T01:41:48.644Z,10.20
2017-10-31T01:44:16.152Z,9.03
2017-10-31T01:46:43.887Z,9.43
2017-10-31T01:49:11.434Z,8.97
2017-10-31T01:51:39.650Z,8.23
2017-10-31T01:54:07.134Z,14.03
2017-10-31T01:56:34.644Z,16.33
2017-10-31T01:59:02.276Z,13.50
2017-10-31T02:01:29.803Z,14.10
2017-10-31T02:03:57.501Z,11.93
2017-10-31T02:06:25.017Z,10.23
2017-10-31T02:08:52.536Z,6.63
2017-10-31T02:11:20.049Z,4.80
2017-10-31T02:13:47.652Z,10.47
2017-10-31T02:16:15.130Z,12.27
2017-10-31T02:18:42.640Z,10.40
2017-10-31T02:21:10.131Z,14.93
2017-10-31T02:23:38.425Z,11.97
2017-10-31T02:26:06.001Z,10.00
2017-10-31T02:28:33.570Z,6.63
2017-10-31T02:31:01.108Z,10.90
2017-10-31T02:33:28.600Z,9.97
2017-10-31T02:35:56.138Z,10.07
2017-10-31T02:38:23.721Z,10.07
2017-10-31T02:40:51.255Z,6.93
2017-10-31T02:43:18.774Z,10.73
2017-10-31T02:45:47.085Z,8.67
2017-10-31T02:48:14.586Z,11.07
2017-10-31T02:50:42.243Z,11.97
2017-10-31T02:53:09.769Z,13.73
2017-10-31T02:55:37.618Z,17.07
2017-10-31T02:58:05.868Z,11.53
2017-10-31T03:00:34.154Z,9.63
2017-10-31T03:03:01.651Z,6.50
2017-10-31T03:05:29.356Z,6.90
2017-10-31T03:07:56.850Z,8.10
2017-10-31T03:10:24.371Z,6.63
2017-10-31T03:12:51.893Z,9.10
2017-10-31T03:15:19.430Z,18.47
2017-10-31T03:17:48.095Z,11.53
2017-10-31T03:20:16.395Z,15.03
2017-10-31T03:22:43.888Z,15.70
2017-10-31T03:25:11.437Z,6.03
2017-10-31T03:27:39.122Z,9.20
2017-10-31T03:30:06.650Z,10.37
2017-10-31T03:32:34.222Z,12.40
2017-10-31T03:35:02.065Z,17.80
2017-10-31T03:37:29.648Z,8.63
2017-10-31T03:39:57.171Z,7.93
2017-10-31T03:42:24.689Z,8.47
2017-10-31T03:44:52.189Z,8.50
2017-10-31T03:47:19.691Z,11.60
2017-10-31T03:49:47.240Z,8.93
2017-10-31T03:52:14.800Z,7.13
2017-10-31T03:54:42.304Z,10.63
2017-10-31T03:57:09.832Z,11.47
2017-10-31T03:59:37.315Z,5.73
2017-10-31T04:02:05.588Z,5.23
2017-10-31T04:04:33.076Z,9.67
2017-10-31T04:07:00.767Z,11.97
2017-10-31T04:09:28.276Z,5.37
2017-10-31T04:11:56.023Z,12.17
2017-10-31T04:14:23.734Z,8.93
2017-10-31T04:16:51.225Z,14.03
2017-10-31T04:19:18.726Z,8.93
2017-10-31T04:21:46.407Z,19.53
2017-10-31T04:24:14.249Z,11.33
2017-10-31T04:26:41.946Z,9.27
2017-10-31T04:29:09.484Z,9.73
2017-10-31T04:31:36.975Z,18.90
2017-10-31T04:34:04.969Z,9.33
2017-10-31T04:36:32.464Z,11.33
2017-10-31T04:39:00.162Z,8.50
2017-10-31T04:41:27.690Z,13.00
2017-10-31T04:43:55.371Z,16.90
2017-10-31T04:46:22.909Z,10.57
2017-10-31T04:48:50.434Z,10.60
2017-10-31T04:51:18.718Z,15.13
2017-10-31T04:53:46.944Z,9.53
2017-10-31T04:56:14.519Z,13.03
2017-10-31T04:58:42.025Z,11.97
2017-10-31T05:01:09.581Z,9.10
2017-10-31T05:03:37.218Z,6.10
2017-10-31T05:06:04.787Z,8.17
2017-10-31T05:08:32.423Z,12.37
2017-10-31T05:10:59.933Z,8.97
2017-10-31T05:13:27.505Z,7.43
2017-10-31T05:15:55.048Z,12.77
2017-10-31T05:18:22.571Z,11.50
2017-10-31T05:20:50.104Z,9.53
2017-10-31T05:23:17.811Z,10.03
2017-10-31T05:25:45.349Z,8.73
2017-10-31T05:28:13.721Z,15.57
2017-10-31T05:30:42.946Z,23.07
2017-10-31T05:33:10.512Z,12.90
2017-10-31T05:35:38.092Z,19.60
2017-10-31T05:38:05.601Z,17.50
2017-10-31T05:40:33.124Z,16.20
2017-10-31T05:43:00.643Z,16.60
2017-10-31T05:45:28.184Z,18.97
2017-10-31T05:47:55.703Z,13.17
2017-10-31T05:50:23.502Z,15.03
2017-10-31T05:52:51.231Z,17.97
2017-10-31T05:55:18.742Z,13.23
2017-10-31T05:57:46.456Z,11.50
2017-10-31T06:00:14.742Z,19.20
2017-10-31T06:02:42.304Z,16.13
2017-10-31T06:05:09.872Z,12.20
2017-10-31T06:07:38.421Z,17.13
2017-10-31T06:10:07.308Z,14.00
2017-10-31T06:12:35.172Z,13.23
2017-10-31T06:15:02.712Z,16.87
2017-10-31T06:17:30.402Z,16.90
2017-10-31T06:19:58.152Z,21.27
2017-10-31T06:22:31.241Z,14.10
2017-10-31T06:25:04.525Z,18.03
2017-10-31T06:27:37.756Z,18.77
2017-10-31T06:30:11.231Z,12.20
2017-10-31T06:32:38.751Z,16.03
2017-10-31T06:35:06.536Z,19.83
2017-10-31T06:37:34.311Z,12.23
2017-10-31T06:40:02.677Z,15.57
2017-10-31T06:42:30.371Z,17.27
2017-10-31T06:44:57.880Z,22.60
2017-10-31T06:47:25.439Z,27.00
2017-10-31T06:49:53.123Z,14.80
2017-10-31T06:52:20.647Z,17.70
2017-10-31T06:54:49.705Z,21.27
2017-10-31T06:57:17.405Z,17.87
2017-10-31T06:59:44.955Z,15.20
2017-10-31T07:02:12.481Z,17.63
2017-10-31T07:04:40.776Z,17.13
2017-10-31T07:07:08.281Z,17.43
2017-10-31T07:09:35.819Z,13.90
2017-10-31T07:12:03.341Z,15.90
2017-10-31T07:14:30.840Z,16.40
2017-10-31T07:16:58.487Z,12.00
2017-10-31T07:19:26.008Z,14.13
2017-10-31T07:21:53.708Z,13.60
2017-10-31T07:24:21.243Z,12.17
2017-10-31T07:26:48.840Z,15.00
2017-10-31T07:29:16.411Z,16.37
2017-10-31T07:31:43.953Z,15.87
2017-10-31T07:34:11.475Z,20.93
2017-10-31T07:36:39.790Z,20.23
2017-10-31T07:39:07.428Z,22.37
2017-10-31T07:41:34.952Z,15.83
2017-10-31T07:44:02.680Z,15.57
2017-10-31T07:46:30.466Z,12.53
2017-10-31T07:48:58.246Z,12.97
2017-10-31T07:51:25.767Z,9.47
2017-10-31T07:53:54.076Z,15.00
2017-10-31T07:56:21.571Z,11.73
2017-10-31T07:58:49.088Z,19.03
2017-10-31T08:01:16.804Z,14.93
2017-10-31T08:03:44.296Z,12.53
2017-10-31T08:06:11.796Z,8.83
2017-10-31T08:08:40.499Z,11.03
2017-10-31T08:11:08.275Z,9.87
2017-10-31T08:13:35.966Z,9.90
2017-10-31T08:16:03.509Z,15.07
2017-10-31T08:18:31.060Z,10.97
2017-10-31T08:20:58.836Z,9.80
2017-10-31T08:23:26.336Z,12.40
2017-10-31T08:25:53.900Z,12.37
2017-10-31T08:28:22.432Z,11.23
2017-10-31T08:30:49.940Z,12.30
2017-10-31T08:33:17.519Z,19.40
2017-10-31T08:35:45.033Z,13.70
2017-10-31T08:38:12.561Z,15.33
2017-10-31T08:40:40.084Z,13.37
2017-10-31T08:43:07.632Z,16.47
2017-10-31T08:45:35.907Z,12.23
2017-10-31T08:48:03.411Z,16.60
2017-10-31T08:50:31.020Z,14.40
2017-10-31T08:52:59.404Z,17.60
2017-10-31T08:55:27.325Z,19.73
2017-10-31T08:57:54.816Z,13.97
2017-10-31T09:00:22.344Z,13.23
2017-10-31T09:02:49.852Z,13.17
2017-10-31T09:05:17.360Z,13.17
2017-10-31T09:07:45.112Z,14.13
2017-10-31T09:10:12.613Z,11.70
2017-10-31T09:12:40.131Z,13.03
2017-10-31T09:15:07.627Z,11.00
2017-10-31T09:17:35.924Z,13.43
2017-10-31T09:20:03.634Z,8.10
2017-10-31T09:22:32.074Z,6.43
2017-10-31T09:24:59.581Z,8.60
2017-10-31T09:27:27.064Z,10.70
2017-10-31T09:29:55.367Z,11.10
2017-10-31T09:32:22.910Z,10.70
2017-10-31T09:34:51.169Z,12.10
2017-10-31T09:37:18.697Z,17.93
2017-10-31T09:39:46.300Z,14.63
2017-10-31T09:42:13.833Z,13.67
2017-10-31T09:44:41.346Z,12.27
2017-10-31T09:47:09.008Z,7.80
2017-10-31T09:49:36.533Z,7.70
2017-10-31T09:52:04.076Z,9.70
2017-10-31T09:54:32.629Z,16.10
2017-10-31T09:57:00.129Z,11.20
2017-10-31T09:59:27.637Z,8.63
2017-10-31T10:01:55.132Z,6.97
2017-10-31T10:04:23.395Z,10.57
2017-10-31T10:06:51.869Z,9.43
2017-10-31T10:09:19.408Z,12.17
2017-10-31T10:11:46.977Z,11.70
2017-10-31T10:14:14.469Z,7.17
2017-10-31T10:16:42.184Z,8.43
2017-10-31T10:19:09.757Z,14.37
2017-10-31T10:21:37.416Z,3.93
2017-10-31T10:24:04.984Z,11.93
2017-10-31T10:26:32.643Z,9.33
2017-10-31T10:29:00.162Z,7.60
2017-10-31T10:31:27.857Z,11.70
2017-10-31T10:33:55.355Z,9.53
2017-10-31T10:36:22.910Z,7.27
2017-10-31T10:38:51.448Z,6.77
2017-10-31T10:41:18.956Z,9.07
2017-10-31T10:43:46.699Z,16.80
2017-10-31T10:46:14.456Z,4.77
2017-10-31T10:48:42.023Z,11.43
2017-10-31T10:51:10.302Z,4.07
2017-10-31T10:53:37.810Z,12.27
2017-10-31T10:56:05.405Z,6.80
2017-10-31T10:58:32.976Z,10.60
2017-10-31T11:01:00.473Z,7.43
2017-10-31T11:03:27.981Z,11.23
2017-10-31T11:05:55.476Z,12.47
2017-10-31T11:08:22.980Z,17.93
2017-10-31T11:10:50.476Z,13.63
2017-10-31T11:13:18.323Z,15.13
2017-10-31T11:15:45.824Z,8.30
2017-10-31T11:18:13.371Z,3.93
2017-10-31T11:20:41.062Z,9.40
2017-10-31T11:23:08.733Z,10.90
2017-10-31T11:25:36.580Z,7.60
2017-10-31T11:28:04.281Z,5.23
2017-10-31T11:30:31.977Z,7.83
2017-10-31T11:32:59.468Z,6.10
2017-10-31T11:35:26.970Z,4.70
2017-10-31T11:37:55.448Z,9.73
2017-10-31T11:40:22.949Z,10.20
2017-10-31T11:42:50.453Z,17.43
2017-10-31T11:45:17.987Z,11.00
2017-10-31T11:47:45.480Z,9.70
2017-10-31T11:50:13.216Z,14.87
2017-10-31T11:52:40.772Z,15.50
2017-10-31T11:55:08.428Z,8.70
2017-10-31T11:57:35.940Z,17.93
2017-10-31T12:00:03.507Z,8.13
2017-10-31T12:02:31.019Z,7.87
2017-10-31T12:04:58.552Z,10.47
2017-10-31T12:07:26.416Z,8.23
2017-10-31T12:09:53.996Z,6.80
2017-10-31T12:12:21.572Z,15.30
2017-10-31T12:14:49.112Z,5.20
2017-10-31T12:17:16.748Z,8.73
2017-10-31T12:19:44.248Z,14.60
2017-10-31T12:22:11.883Z,19.73
2017-10-31T12:24:39.473Z,8.73
2017-10-31T12:27:07.049Z,14.70
2017-10-31T12:29:35.348Z,16.73
2017-10-31T12:32:02.856Z,15.63
2017-10-31T12:34:30.520Z,4.57
2017-10-31T12:36:58.296Z,11.43
2017-10-31T12:39:26.237Z,7.13
2017-10-31T12:41:53.736Z,10.90
2017-10-31T12:44:21.291Z,10.50
2017-10-31T12:46:48.850Z,12.40
2017-10-31T12:49:17.131Z,13.90
2017-10-31T12:51:44.839Z,12.23
2017-10-31T12:54:12.371Z,14.37
2017-10-31T12:56:39.876Z,8.63
2017-10-31T12:59:07.404Z,8.47
2017-10-31T13:01:34.970Z,17.20
2017-10-31T13:04:02.708Z,11.17
2017-10-31T13:06:30.267Z,16.70
2017-10-31T13:08:57.840Z,8.83
2017-10-31T13:11:25.335Z,7.03
2017-10-31T13:13:52.895Z,23.93
2017-10-31T13:16:20.406Z,7.63
2017-10-31T13:18:47.912Z,9.23
2017-10-31T13:21:15.540Z,10.67
2017-10-31T13:23:43.322Z,8.47
2017-10-31T13:26:11.072Z,4.90
2017-10-31T13:28:39.187Z,12.43
2017-10-31T13:31:07.049Z,16.00
2017-10-31T13:33:35.192Z,9.87
2017-10-31T13:36:03.008Z,13.73
2017-10-31T13:38:32.076Z,13.90
2017-10-31T13:40:59.937Z,11.23
2017-10-31T13:43:28.483Z,13.00
2017-10-31T13:45:56.015Z,11.43
2017-10-31T13:48:23.737Z,10.73
2017-10-31T13:50:52.071Z,14.50
2017-10-31T13:53:19.716Z,9.40
2017-10-31T13:55:47.217Z,9.00
2017-10-31T13:58:14.713Z,13.10
2017-10-31T14:00:42.457Z,13.53
2017-10-31T14:03:11.294Z,17.03
2017-10-31T14:05:39.014Z,10.87
2017-10-31T14:08:06.772Z,17.47
2017-10-31T14:10:34.995Z,13.33
2017-10-31T14:13:02.493Z,15.03
2017-10-31T14:15:30.008Z,12.47
2017-10-31T14:17:58.064Z,19.17
2017-10-31T14:20:25.776Z,13.00
2017-10-31T14:22:53.329Z,13.50
2017-10-31T14:25:20.859Z,22.97
2017-10-31T14:27:48.508Z,12.37
2017-10-31T14:30:16.821Z,18.23
2017-10-31T14:32:44.313Z,9.17
2017-10-31T14:35:11.834Z,11.17
2017-10-31T14:37:39.340Z,17.63
2017-10-31T14:40:07.079Z,17.53
2017-10-31T14:42:34.817Z,12.17
2017-10-31T14:45:02.369Z,10.00
2017-10-31T14:47:29.944Z,19.50
2017-10-31T14:49:57.439Z,16.40
2017-10-31T14:52:24.983Z,12.73
2017-10-31T14:54:52.716Z,21.10
2017-10-31T14:57:20.497Z,16.03
2017-10-31T14:59:48.922Z,11.87
2017-10-31T15:02:17.724Z,7.50
2017-10-31T15:04:45.394Z,13.23
2017-10-31T15:07:12.943Z,14.33
2017-10-31T15:09:40.542Z,16.83
2017-10-31T15:12:08.303Z,7.90
2017-10-31T15:14:36.059Z,18.40
2017-10-31T15:17:03.585Z,14.57
2017-10-31T15:19:31.099Z,12.03
2017-10-31T15:21:58.652Z,17.10
2017-10-31T15:24:26.204Z,14.50
2017-10-31T15:26:54.020Z,9.63
2017-10-31T15:29:21.717Z,10.30
2017-10-31T15:31:49.220Z,14.30
2017-10-31T15:34:16.743Z,9.50
2017-10-31T15:36:44.405Z,14.13
2017-10-31T15:39:11.946Z,12.50
2017-10-31T15:41:39.607Z,26.67
2017-10-31T15:44:07.402Z,13.20
2017-10-31T15:46:35.109Z,22.50
2017-10-31T15:49:02.632Z,16.50
2017-10-31T15:51:30.320Z,15.13
2017-10-31T15:53:58.120Z,18.37
2017-10-31T15:56:26.132Z,11.33
2017-10-31T15:58:53.662Z,13.17
2017-10-31T16:01:21.166Z,24.93
2017-10-31T16:03:48.794Z,15.83
2017-10-31T16:06:16.365Z,16.53
2017-10-31T16:08:43.881Z,14.43
2017-10-31T16:11:11.563Z,14.00
2017-10-31T16:13:39.065Z,12.97
2017-10-31T16:16:06.576Z,11.40
2017-10-31T16:18:34.095Z,25.00
2017-10-31T16:21:01.604Z,18.17
2017-10-31T16:23:29.132Z,17.93
2017-10-31T16:25:57.238Z,20.70
2017-10-31T16:28:24.735Z,20.50
2017-10-31T16:30:52.419Z,21.70
2017-10-31T16:33:20.199Z,21.03
2017-10-31T16:35:47.721Z,17.10
2017-10-31T16:38:15.222Z,16.60
2017-10-31T16:40:43.707Z,25.03
2017-10-31T16:43:11.978Z,15.23
2017-10-31T16:45:39.638Z,14.70
2017-10-31T16:48:07.147Z,20.30
2017-10-31T16:50:34.843Z,18.07
2017-10-31T16:53:02.596Z,20.70
2017-10-31T16:55:30.172Z,14.63
2017-10-31T16:57:57.841Z,20.40
2017-10-31T17:00:25.355Z,20.50
2017-10-31T17:02:53.016Z,30.77
2017-10-31T17:05:20.531Z,19.30
2017-10-31T17:07:48.032Z,31.00
2017-10-31T17:10:15.536Z,29.77
2017-10-31T17:12:43.058Z,27.77
2017-10-31T17:15:10.561Z,25.97
2017-10-31T17:17:38.105Z,18.30
2017-10-31T17:20:05.597Z,27.07
2017-10-31T17:22:33.101Z,23.47
2017-10-31T17:25:00.677Z,25.97
2017-10-31T17:27:28.271Z,25.80
2017-10-31T17:29:56.760Z,23.23
2017-10-31T17:32:25.279Z,29.43
2017-10-31T17:34:52.993Z,25.43
2017-10-31T17:37:21.457Z,26.63
2017-10-31T17:39:48.965Z,31.80
2017-10-31T17:42:16.653Z,33.07
2017-10-31T17:44:44.164Z,28.30
2017-10-31T17:47:11.743Z,32.03
2017-10-31T17:49:40.283Z,23.93
2017-10-31T17:52:07.824Z,33.53
2017-10-31T17:54:35.307Z,38.97
2017-10-31T17:57:03.580Z,23.53
2017-10-31T17:59:31.079Z,27.97
2017-10-31T18:01:58.588Z,29.93
2017-10-31T18:04:26.864Z,28.80
2017-10-31T18:06:54.638Z,35.10
2017-10-31T18:09:22.137Z,33.97
2017-10-31T18:11:49.797Z,32.07
2017-10-31T18:14:17.312Z,23.63
2017-10-31T18:16:44.821Z,27.90
2017-10-31T18:19:12.344Z,29.83
2017-10-31T18:21:40.047Z,34.33
2017-10-31T18:24:07.577Z,27.30
2017-10-31T18:26:35.083Z,26.10
2017-10-31T18:29:02.596Z,31.43
2017-10-31T18:31:30.131Z,35.33
2017-10-31T18:33:57.652Z,39.53
2017-10-31T18:36:25.206Z,39.13
2017-10-31T18:38:52.755Z,27.53
2017-10-31T18:41:20.336Z,41.53
2017-10-31T18:43:47.844Z,29.10
2017-10-31T18:46:15.914Z,42.40
2017-10-31T18:48:43.494Z,33.47
2017-10-31T18:51:11.010Z,42.30
2017-10-31T18:53:38.513Z,38.27
2017-10-31T18:56:06.082Z,41.13
2017-10-31T18:58:33.598Z,34.80
2017-10-31T19:01:01.120Z,43.47
2017-10-31T19:03:29.345Z,52.07
2017-10-31T19:05:57.395Z,46.53
2017-10-31T19:08:25.731Z,47.43
2017-10-31T19:10:53.241Z,39.07
2017-10-31T19:13:20.848Z,42.13
2017-10-31T19:15:48.355Z,51.60
2017-10-31T19:18:15.885Z,51.43
2017-10-31T19:20:43.436Z,43.20
2017-10-31T19:23:10.960Z,54.90
2017-10-31T19:25:38.480Z,48.70
2017-10-31T19:28:06.197Z,57.53
2017-10-31T19:30:33.762Z,59.83
2017-10-31T19:33:01.279Z,46.83
2017-10-31T19:35:28.860Z,47.83
2017-10-31T19:37:56.376Z,52.83
2017-10-31T19:40:23.887Z,58.07
2017-10-31T19:42:51.531Z,54.17
2017-10-31T19:45:19.299Z,57.83
2017-10-31T19:47:46.849Z,51.33
2017-10-31T19:50:14.513Z,53.20
2017-10-31T19:52:42.083Z,64.70
2017-10-31T19:55:09.571Z,63.27
2017-10-31T19:57:38.067Z,65.87
2017-10-31T20:00:05.785Z,57.03
2017-10-31T20:02:33.292Z,65.23
2017-10-31T20:05:01.128Z,64.90
2017-10-31T20:07:28.660Z,68.60
2017-10-31T20:09:56.324Z,65.97
2017-10-31T20:12:23.850Z,58.53
2017-10-31T20:14:51.512Z,78.77
2017-10-31T20:17:19.180Z,62.33
2017-10-31T20:19:46.805Z,66.13
2017-10-31T20:22:14.314Z,56.73
2017-10-31T20:24:41.978Z,63.67
2017-10-31T20:27:10.346Z,73.97
2017-10-31T20:29:37.865Z,75.67
2017-10-31T20:32:05.408Z,72.53
2017-10-31T20:34:32.918Z,70.33
2017-10-31T20:37:00.432Z,72.83
2017-10-31T20:39:27.957Z,69.70
2017-10-31T20:41:55.868Z,68.13
2017-10-31T20:44:23.409Z,82.53
2017-10-31T20:46:52.240Z,83.30
2017-10-31T20:49:20.260Z,86.47
2017-10-31T20:51:47.745Z,85.33
2017-10-31T20:54:15.451Z,80.00
2017-10-31T20:56:42.940Z,67.37
2017-10-31T20:59:10.487Z,91.67
2017-10-31T21:01:38.005Z,98.87
2017-10-31T21:04:05.521Z,72.93
2017-10-31T21:06:33.749Z,77.63
2017-10-31T21:09:01.450Z,82.90
2017-10-31T21:11:28.956Z,85.30
2017-10-31T21:13:56.644Z,73.70
2017-10-31T21:16:24.172Z,98.80
2017-10-31T21:18:51.667Z,83.57
2017-10-31T21:21:19.305Z,87.63
2017-10-31T21:23:46.877Z,71.13
2017-10-31T21:26:14.394Z,85.50
2017-10-31T21:28:42.772Z,82.17
2017-10-31T21:31:10.370Z,70.77
2017-10-31T21:33:37.912Z,81.70
2017-10-31T21:36:05.436Z,78.97
2017-10-31T21:38:32.949Z,60.60
2017-10-31T21:41:00.456Z,74.03
2017-10-31T21:43:27.974Z,78.43
2017-10-31T21:45:55.516Z,88.37
2017-10-31T21:48:23.031Z,77.27
2017-10-31T21:50:51.567Z,79.70
2017-10-31T21:53:19.112Z,86.97
2017-10-31T21:55:46.623Z,71.87
2017-10-31T21:58:15.056Z,75.43
2017-10-31T22:00:42.597Z,79.90
2017-10-31T22:03:10.437Z,73.80
2017-10-31T22:05:37.981Z,73.10
2017-10-31T22:08:06.543Z,82.60
2017-10-31T22:10:34.079Z,68.90
2017-10-31T22:13:01.649Z,72.07
2017-10-31T22:15:29.234Z,71.13
2017-10-31T22:17:57.127Z,76.30
2017-10-31T22:20:24.619Z,68.07
2017-10-31T22:22:52.142Z,63.90
2017-10-31T22:25:19.944Z,78.37
2017-10-31T22:27:47.449Z,82.17
2017-10-31T22:30:15.315Z,72.57
2017-10-31T22:32:43.819Z,73.70
2017-10-31T22:35:11.561Z,74.27
2017-10-31T22:37:39.071Z,77.43
2017-10-31T22:40:06.646Z,71.23
2017-10-31T22:42:34.211Z,71.57
2017-10-31T22:45:01.747Z,73.07
2017-10-31T22:47:29.306Z,84.77
2017-10-31T22:49:56.961Z,64.87
2017-10-31T22:52:24.739Z,67.47
2017-10-31T22:54:52.344Z,75.77
2017-10-31T22:57:19.872Z,76.90
2017-10-31T22:59:48.164Z,73.27
2017-10-31T23:02:16.443Z,81.17
2017-10-31T23:04:44.040Z,73.57
2017-10-31T23:07:11.582Z,72.30
2017-10-31T23:09:40.225Z,65.47
2017-10-31T23:12:07.766Z,69.57
2017-10-31T23:14:35.358Z,73.60
2017-10-31T23:17:03.730Z,66.93
2017-10-31T23:19:31.223Z,59.70
2017-10-31T23:21:58.827Z,69.40
2017-10-31T23:24:32.131Z,74.17
2017-10-31T23:26:59.633Z,70.90
2017-10-31T23:29:27.359Z,63.50
2017-10-31T23:31:55.095Z,53.17
2017-10-31T23:34:22.822Z,56.07
2017-10-31T23:36:50.321Z,53.33
2017-10-31T23:39:17.836Z,50.63
2017-10-31T23:41:45.525Z,49.17
2017-10-31T23:44:13.018Z,51.47
2017-10-31T23:46:40.530Z,53.47
2017-10-31T23:49:08.224Z,52.67
2017-10-31T23:51:35.764Z,49.27
2017-10-31T23:54:03.275Z,49.97
2017-10-31T23:56:30.872Z,49.43
2017-10-31T23:58:58.384Z,47.03
